createdAt,value
2018-11-06T00:00:02.649Z,48.43
2018-11-06T00:02:31.166Z,50.17
2018-11-06T00:05:05.126Z,48.10
2018-11-06T00:07:33.732Z,47.87
2018-11-06T00:10:02.391Z,47.67
2018-11-06T00:12:31.159Z,47.73
2018-11-06T00:15:01.105Z,47.97
2018-11-06T00:17:29.657Z,48.20
2018-11-06T00:19:58.398Z,46.97
2018-11-06T00:22:27.867Z,48.30
2018-11-06T00:24:57.052Z,48.60
2018-11-06T00:27:26.384Z,47.90
2018-11-06T00:29:55.615Z,46.17
2018-11-06T00:32:25.134Z,45.60
2018-11-06T00:34:54.146Z,47.57
2018-11-06T00:37:23.211Z,47.70
2018-11-06T00:39:53.231Z,45.07
2018-11-06T00:42:23.433Z,46.20
2018-11-06T00:44:52.111Z,46.03
2018-11-06T00:47:20.686Z,43.80
2018-11-06T00:49:49.695Z,44.77
2018-11-06T00:52:18.582Z,45.10
2018-11-06T00:54:47.496Z,43.17
2018-11-06T00:57:16.801Z,45.23
2018-11-06T00:59:46.315Z,45.80
2018-11-06T01:02:15.127Z,44.77
2018-11-06T01:04:43.963Z,43.20
2018-11-06T01:07:12.687Z,43.40
2018-11-06T01:09:43.027Z,43.80
2018-11-06T01:12:11.715Z,43.07
2018-11-06T01:14:40.538Z,44.50
2018-11-06T01:17:09.127Z,42.50
2018-11-06T01:19:37.957Z,44.47
2018-11-06T01:22:06.749Z,42.07
2018-11-06T01:24:36.106Z,42.90
2018-11-06T01:27:04.869Z,43.03
2018-11-06T01:29:33.502Z,43.07
2018-11-06T01:32:02.193Z,42.23
2018-11-06T01:34:32.155Z,42.77
2018-11-06T01:37:01.269Z,42.23
2018-11-06T01:39:30.304Z,42.57
2018-11-06T01:41:59.060Z,42.00
2018-11-06T01:44:27.784Z,43.37
2018-11-06T01:46:56.456Z,43.10
2018-11-06T01:49:25.000Z,41.40
2018-11-06T01:51:53.482Z,41.17
2018-11-06T01:54:22.073Z,37.80
2018-11-06T01:56:51.218Z,38.30
2018-11-06T01:59:19.750Z,38.70
2018-11-06T02:01:48.629Z,37.90
2018-11-06T02:04:17.521Z,37.23
2018-11-06T02:06:46.436Z,36.33
2018-11-06T02:09:17.186Z,36.93
2018-11-06T02:11:48.588Z,36.20
2018-11-06T02:14:19.479Z,34.97
2018-11-06T02:16:48.709Z,36.20
2018-11-06T02:19:17.342Z,35.10
2018-11-06T02:21:46.464Z,36.37
2018-11-06T02:24:15.732Z,34.47
2018-11-06T02:26:45.517Z,35.40
2018-11-06T02:29:14.116Z,33.33
2018-11-06T02:31:42.752Z,34.13
2018-11-06T02:34:11.358Z,32.87
2018-11-06T02:36:39.971Z,33.63
2018-11-06T02:39:09.572Z,33.60
2018-11-06T02:41:38.331Z,32.03
2018-11-06T02:44:06.949Z,33.00
2018-11-06T02:46:35.595Z,32.00
2018-11-06T02:49:04.257Z,31.77
2018-11-06T02:51:32.824Z,31.57
2018-11-06T02:54:01.790Z,31.40
2018-11-06T02:56:31.166Z,31.67
2018-11-06T02:58:59.857Z,30.67
2018-11-06T03:01:28.532Z,30.07
2018-11-06T03:03:57.354Z,32.00
2018-11-06T03:06:26.061Z,30.13
2018-11-06T03:08:54.736Z,29.23
2018-11-06T03:11:23.420Z,29.10
2018-11-06T03:13:51.929Z,29.93
2018-11-06T03:16:20.429Z,28.43
2018-11-06T03:18:48.980Z,29.80
2018-11-06T03:21:17.639Z,29.80
2018-11-06T03:23:46.045Z,29.13
2018-11-06T03:26:14.518Z,28.63
2018-11-06T03:28:42.977Z,29.20
2018-11-06T03:31:11.424Z,28.53
2018-11-06T03:33:40.043Z,29.10
2018-11-06T03:36:08.640Z,27.67
2018-11-06T03:38:37.144Z,29.17
2018-11-06T03:41:05.957Z,28.50
2018-11-06T03:43:34.510Z,26.97
2018-11-06T03:46:03.193Z,26.10
2018-11-06T03:48:31.630Z,25.70
2018-11-06T03:51:00.939Z,26.43
2018-11-06T03:53:29.520Z,26.43
2018-11-06T03:55:58.201Z,24.60
2018-11-06T03:58:26.768Z,25.67
2018-11-06T04:00:55.307Z,25.17
2018-11-06T04:03:23.743Z,24.37
2018-11-06T04:05:52.279Z,25.37
2018-11-06T04:08:20.753Z,24.60
2018-11-06T04:10:49.757Z,25.13
2018-11-06T04:13:18.267Z,23.27
2018-11-06T04:15:46.731Z,26.00
2018-11-06T04:18:15.315Z,23.20
2018-11-06T04:20:44.055Z,23.23
2018-11-06T04:23:12.578Z,24.57
2018-11-06T04:25:41.101Z,23.50
2018-11-06T04:28:09.563Z,21.93
2018-11-06T04:30:38.182Z,22.63
2018-11-06T04:33:06.727Z,22.07
2018-11-06T04:35:35.170Z,22.57
2018-11-06T04:38:03.732Z,22.03
2018-11-06T04:40:32.272Z,22.47
2018-11-06T04:43:00.745Z,21.33
2018-11-06T04:45:29.329Z,21.43
2018-11-06T04:47:57.816Z,21.30
2018-11-06T04:50:26.812Z,21.93
2018-11-06T04:52:55.347Z,21.47
2018-11-06T04:55:23.781Z,21.30
2018-11-06T04:57:52.409Z,20.67
2018-11-06T05:00:20.976Z,20.20
2018-11-06T05:02:49.556Z,20.20
2018-11-06T05:05:18.066Z,19.70
2018-11-06T05:07:46.485Z,19.60
2018-11-06T05:10:15.277Z,18.90
2018-11-06T05:12:44.083Z,20.23
2018-11-06T05:15:14.842Z,19.20
2018-11-06T05:17:43.349Z,19.37
2018-11-06T05:20:15.177Z,18.40
2018-11-06T05:22:44.855Z,17.80
2018-11-06T05:25:13.408Z,18.10
2018-11-06T05:27:41.884Z,18.30
2018-11-06T05:30:11.129Z,18.77
2018-11-06T05:32:40.889Z,17.60
2018-11-06T05:35:09.951Z,17.73
2018-11-06T05:37:38.782Z,17.63
2018-11-06T05:40:19.430Z,17.33
2018-11-06T05:42:47.856Z,17.67
2018-11-06T05:45:16.535Z,17.33
2018-11-06T05:47:45.277Z,17.87
2018-11-06T05:50:13.904Z,16.37
2018-11-06T05:52:42.396Z,16.83
2018-11-06T05:55:10.918Z,16.63
2018-11-06T05:57:39.459Z,15.53
2018-11-06T06:00:09.185Z,16.97
2018-11-06T06:02:37.669Z,15.83
2018-11-06T06:05:07.447Z,15.70
2018-11-06T06:07:35.925Z,16.40
2018-11-06T06:10:04.997Z,15.73
2018-11-06T06:12:33.599Z,15.60
2018-11-06T06:15:02.553Z,15.33
2018-11-06T06:17:31.102Z,15.00
2018-11-06T06:19:59.676Z,15.37
2018-11-06T06:22:28.381Z,14.73
2018-11-06T06:24:56.911Z,14.63
2018-11-06T06:27:25.368Z,14.00
2018-11-06T06:29:55.079Z,14.13
2018-11-06T06:32:23.497Z,14.60
2018-11-06T06:34:52.215Z,14.10
2018-11-06T06:37:20.901Z,14.20
2018-11-06T06:39:49.555Z,14.30
2018-11-06T06:42:19.292Z,14.77
2018-11-06T06:44:49.911Z,14.90
2018-11-06T06:47:20.807Z,14.90
2018-11-06T06:49:49.228Z,15.20
2018-11-06T06:52:18.349Z,15.47
2018-11-06T06:54:47.039Z,14.43
2018-11-06T06:57:15.677Z,15.43
2018-11-06T06:59:44.728Z,15.50
2018-11-06T07:02:17.913Z,16.53
2018-11-06T07:04:46.705Z,15.47
